createdAt,value
2017-09-02T00:00:26.997Z,54.2
2017-09-02T00:01:27.680Z,54.2
2017-09-02T00:02:28.381Z,54.0
2017-09-02T00:03:29.068Z,53.8
2017-09-02T00:04:29.779Z,54.2
2017-09-02T00:05:30.524Z,53.9
2017-09-02T00:06:31.238Z,54.2
2017-09-02T00:07:31.944Z,53.8
2017-09-02T00:08:32.663Z,54.1
2017-09-02T00:09:33.369Z,54.0
2017-09-02T00:10:34.134Z,53.9
2017-09-02T00:11:34.842Z,53.9
2017-09-02T00:12:35.568Z,54.0
2017-09-02T00:13:36.276Z,54.0
2017-09-02T00:14:36.984Z,54.0
2017-09-02T00:15:37.890Z,54.0
2017-09-02T00:16:38.609Z,53.9
2017-09-02T00:17:39.309Z,54.0
2017-09-02T00:18:39.952Z,53.9
2017-09-02T00:19:40.662Z,53.6
2017-09-02T00:20:41.421Z,53.6
2017-09-02T00:21:42.090Z,53.9
2017-09-02T00:22:42.799Z,53.8
2017-09-02T00:23:43.514Z,53.6
2017-09-02T00:24:44.214Z,54.0
2017-09-02T00:25:44.976Z,53.9
2017-09-02T00:26:45.758Z,54.1
2017-09-02T00:27:46.471Z,54.0
2017-09-02T00:28:47.172Z,54.0
2017-09-02T00:29:47.884Z,53.9
2017-09-02T00:30:48.715Z,53.7
2017-09-02T00:31:49.417Z,54.2
2017-09-02T00:32:50.130Z,53.8
2017-09-02T00:33:50.834Z,53.9
2017-09-02T00:34:51.547Z,53.8
2017-09-02T00:35:52.270Z,53.7
2017-09-02T00:36:52.982Z,53.9
2017-09-02T00:37:53.705Z,54.1
2017-09-02T00:38:54.483Z,53.9
2017-09-02T00:39:55.195Z,53.8
2017-09-02T00:40:55.949Z,54.0
2017-09-02T00:41:56.726Z,54.0
2017-09-02T00:42:57.418Z,54.2
2017-09-02T00:43:58.131Z,53.9
2017-09-02T00:44:58.849Z,54.1
2017-09-02T00:45:59.961Z,54.0
2017-09-02T00:47:00.666Z,54.3
2017-09-02T00:48:01.359Z,54.6
2017-09-02T00:49:02.068Z,54.2
2017-09-02T00:50:02.766Z,54.6
2017-09-02T00:51:03.520Z,54.6
2017-09-02T00:52:04.162Z,54.2
2017-09-02T00:53:04.845Z,54.6
2017-09-02T00:54:05.558Z,54.0
2017-09-02T00:55:06.264Z,54.6
2017-09-02T00:56:07.007Z,54.6
2017-09-02T00:57:07.689Z,54.5
2017-09-02T00:58:08.379Z,54.5
2017-09-02T00:59:09.080Z,54.6
2017-09-02T01:00:09.761Z,54.1
2017-09-02T01:01:10.655Z,54.7
2017-09-02T01:02:11.367Z,54.6
2017-09-02T01:03:12.080Z,54.7
2017-09-02T01:04:12.804Z,54.7
2017-09-02T01:05:13.495Z,54.6
2017-09-02T01:06:14.252Z,54.7
2017-09-02T01:07:14.973Z,54.6
2017-09-02T01:08:15.686Z,54.7
2017-09-02T01:09:16.400Z,54.7
2017-09-02T01:10:17.112Z,54.6
2017-09-02T01:11:17.943Z,54.7
2017-09-02T01:12:18.634Z,54.6
2017-09-02T01:13:19.332Z,54.5
2017-09-02T01:14:20.042Z,54.6
2017-09-02T01:15:20.752Z,54.6
2017-09-02T01:16:21.857Z,54.3
2017-09-02T01:17:22.572Z,54.6
2017-09-02T01:18:23.241Z,54.6
2017-09-02T01:19:23.911Z,54.4
2017-09-02T01:20:24.573Z,54.4
2017-09-02T01:21:25.326Z,54.3
2017-09-02T01:22:25.991Z,54.4
2017-09-02T01:23:26.673Z,54.2
2017-09-02T01:24:27.390Z,54.4
2017-09-02T01:25:28.104Z,54.4
2017-09-02T01:26:28.861Z,54.4
2017-09-02T01:27:29.581Z,54.4
2017-09-02T01:28:30.291Z,54.2
2017-09-02T01:29:30.998Z,54.2
2017-09-02T01:30:31.681Z,54.6
2017-09-02T01:31:32.795Z,54.2
2017-09-02T01:32:33.509Z,54.2
2017-09-02T01:33:34.221Z,54.2
2017-09-02T01:34:34.944Z,54.2
2017-09-02T01:35:35.668Z,54.4
2017-09-02T01:36:36.424Z,54.4
2017-09-02T01:37:37.064Z,54.4
2017-09-02T01:38:37.784Z,54.1
2017-09-02T01:39:38.594Z,54.3
2017-09-02T01:40:39.307Z,54.3
2017-09-02T01:41:40.072Z,54.5
2017-09-02T01:42:40.775Z,54.6
2017-09-02T01:43:41.490Z,54.7
2017-09-02T01:44:42.211Z,54.4
2017-09-02T01:45:42.937Z,54.8
2017-09-02T01:46:44.042Z,54.6
2017-09-02T01:47:44.767Z,54.4
2017-09-02T01:48:45.490Z,54.5
2017-09-02T01:49:46.201Z,54.6
2017-09-02T01:50:46.906Z,54.4
2017-09-02T01:51:47.670Z,54.5
2017-09-02T01:52:48.382Z,54.5
2017-09-02T01:53:49.095Z,54.5
2017-09-02T01:54:49.798Z,54.5
2017-09-02T01:55:50.520Z,54.8
2017-09-02T01:56:51.287Z,54.8
2017-09-02T01:57:52.001Z,54.7
2017-09-02T01:58:52.726Z,54.6
2017-09-02T01:59:53.446Z,54.8
2017-09-02T02:00:54.159Z,54.6
2017-09-02T02:01:55.331Z,54.5
2017-09-02T02:02:56.053Z,54.7
2017-09-02T02:03:56.759Z,54.6
2017-09-02T02:04:57.468Z,54.6
2017-09-02T02:05:58.180Z,54.6
2017-09-02T02:06:58.938Z,54.7
2017-09-02T02:07:59.649Z,54.8
2017-09-02T02:09:00.367Z,54.6
2017-09-02T02:10:01.044Z,54.8
2017-09-02T02:11:01.845Z,54.6
2017-09-02T02:12:02.607Z,54.7
2017-09-02T02:13:03.321Z,54.7
2017-09-02T02:14:03.963Z,54.4
2017-09-02T02:15:04.681Z,54.7
2017-09-02T02:16:05.395Z,54.3
2017-09-02T02:17:06.416Z,54.5
2017-09-02T02:18:07.133Z,54.7
2017-09-02T02:19:07.834Z,54.7
2017-09-02T02:20:08.555Z,54.4
2017-09-02T02:21:09.267Z,54.4
2017-09-02T02:22:10.025Z,54.6
2017-09-02T02:23:10.746Z,54.4
2017-09-02T02:24:11.460Z,54.5
2017-09-02T02:25:12.173Z,54.6
2017-09-02T02:26:12.885Z,54.6
2017-09-02T02:27:13.641Z,54.5
2017-09-02T02:28:14.352Z,54.8
2017-09-02T02:29:15.077Z,54.8
2017-09-02T02:30:15.790Z,54.7
2017-09-02T02:31:16.504Z,54.7
2017-09-02T02:32:17.387Z,54.8
2017-09-02T02:33:18.092Z,54.8
2017-09-02T02:34:18.802Z,54.8
2017-09-02T02:35:19.534Z,54.7
2017-09-02T02:36:20.238Z,54.8
2017-09-02T02:37:20.993Z,54.7
2017-09-02T02:38:21.724Z,54.7
2017-09-02T02:39:22.432Z,54.6
2017-09-02T02:40:23.210Z,54.7
2017-09-02T02:41:23.929Z,54.8
2017-09-02T02:42:24.636Z,54.6
2017-09-02T02:43:25.324Z,54.9
2017-09-02T02:44:26.036Z,54.7
2017-09-02T02:45:26.749Z,54.7
2017-09-02T02:46:27.471Z,54.7
2017-09-02T02:47:28.430Z,54.9
2017-09-02T02:48:29.238Z,54.8
2017-09-02T02:49:29.951Z,54.6
2017-09-02T02:50:30.660Z,54.7
2017-09-02T02:51:31.376Z,54.8
2017-09-02T02:52:32.019Z,54.7
2017-09-02T02:53:32.744Z,54.6
2017-09-02T02:54:33.450Z,54.7
2017-09-02T02:55:34.169Z,54.9
2017-09-02T02:56:34.881Z,54.7
2017-09-02T02:57:35.612Z,55.0
2017-09-02T02:58:36.315Z,54.8
2017-09-02T02:59:37.026Z,54.8
2017-09-02T03:00:37.740Z,54.9
2017-09-02T03:01:38.464Z,55.0
2017-09-02T03:02:39.431Z,54.9
2017-09-02T03:03:40.144Z,54.8
2017-09-02T03:04:40.869Z,54.8
2017-09-02T03:05:41.590Z,54.9
2017-09-02T03:06:42.308Z,54.9
2017-09-02T03:07:42.947Z,54.9
2017-09-02T03:08:43.592Z,54.9
2017-09-02T03:09:44.282Z,54.9
2017-09-02T03:10:44.995Z,54.7
2017-09-02T03:11:45.709Z,54.8
2017-09-02T03:12:46.467Z,54.9
2017-09-02T03:13:47.188Z,54.7
2017-09-02T03:14:47.912Z,54.9
2017-09-02T03:15:48.637Z,54.5
2017-09-02T03:16:49.347Z,54.6
2017-09-02T03:17:50.359Z,54.8
2017-09-02T03:18:51.072Z,54.6
2017-09-02T03:19:51.785Z,54.5
2017-09-02T03:20:52.508Z,54.9
2017-09-02T03:21:53.221Z,54.7
2017-09-02T03:22:53.976Z,54.5
2017-09-02T03:23:54.699Z,54.6
2017-09-02T03:24:55.407Z,54.6
2017-09-02T03:25:56.125Z,54.8
2017-09-02T03:26:56.838Z,54.6
2017-09-02T03:27:57.605Z,54.5
2017-09-02T03:28:58.317Z,55.0
2017-09-02T03:29:59.042Z,54.8
2017-09-02T03:30:59.754Z,54.8
2017-09-02T03:32:00.467Z,55.0
2017-09-02T03:33:01.576Z,54.7
2017-09-02T03:34:02.289Z,55.0
2017-09-02T03:35:03.010Z,55.0
2017-09-02T03:36:03.732Z,55.0
2017-09-02T03:37:04.394Z,54.7
2017-09-02T03:38:05.063Z,55.1
2017-09-02T03:39:05.734Z,55.0
2017-09-02T03:40:06.404Z,55.1
2017-09-02T03:41:07.074Z,54.9
2017-09-02T03:42:07.734Z,55.0
2017-09-02T03:43:08.404Z,55.1
2017-09-02T03:44:09.096Z,55.1
2017-09-02T03:45:09.767Z,54.9
2017-09-02T03:46:10.430Z,54.8
2017-09-02T03:47:11.104Z,54.9
2017-09-02T03:48:12.063Z,55.1
2017-09-02T03:49:12.734Z,55.1
2017-09-02T03:50:13.405Z,55.2
2017-09-02T03:51:14.091Z,55.1
2017-09-02T03:52:14.746Z,54.9
2017-09-02T03:53:15.407Z,55.0
2017-09-02T03:54:16.051Z,54.9
2017-09-02T03:55:16.719Z,55.0
2017-09-02T03:56:17.384Z,55.3
2017-09-02T03:57:18.045Z,55.0
2017-09-02T03:58:18.715Z,55.1
2017-09-02T03:59:19.385Z,55.1
2017-09-02T04:00:20.054Z,55.0
2017-09-02T04:01:20.725Z,54.9
2017-09-02T04:02:21.427Z,55.0
2017-09-02T04:03:22.223Z,54.9
2017-09-02T04:04:22.858Z,55.1
2017-09-02T04:05:23.500Z,55.0
2017-09-02T04:06:24.140Z,55.0
2017-09-02T04:07:24.784Z,55.2
2017-09-02T04:08:25.424Z,55.2
2017-09-02T04:09:26.070Z,55.1
2017-09-02T04:10:26.710Z,55.2
2017-09-02T04:11:27.352Z,55.2
2017-09-02T04:12:27.993Z,55.2
2017-09-02T04:13:28.636Z,55.2
2017-09-02T04:14:29.278Z,55.2
2017-09-02T04:15:29.920Z,55.1
2017-09-02T04:16:30.565Z,55.2
2017-09-02T04:17:31.202Z,55.3
2017-09-02T04:18:31.992Z,55.3
2017-09-02T04:19:32.636Z,55.3
2017-09-02T04:20:33.278Z,55.3
2017-09-02T04:21:33.920Z,55.1
2017-09-02T04:22:34.561Z,55.3
2017-09-02T04:23:35.205Z,55.2
2017-09-02T04:24:35.847Z,55.3
2017-09-02T04:25:36.491Z,55.4
2017-09-02T04:26:37.132Z,55.3
2017-09-02T04:27:37.776Z,55.2
2017-09-02T04:28:38.418Z,55.5
2017-09-02T04:29:39.062Z,55.0
2017-09-02T04:30:39.706Z,55.4
2017-09-02T04:31:40.349Z,55.2
2017-09-02T04:32:40.991Z,55.4
2017-09-02T04:33:41.883Z,55.1
2017-09-02T04:34:42.526Z,55.3
2017-09-02T04:35:43.167Z,55.0
2017-09-02T04:36:43.808Z,55.3
2017-09-02T04:37:44.450Z,55.2
2017-09-02T04:38:45.092Z,55.8
2017-09-02T04:39:45.734Z,55.2
2017-09-02T04:40:46.377Z,55.9
2017-09-02T04:41:47.019Z,55.2
2017-09-02T04:42:47.663Z,55.1
2017-09-02T04:43:48.304Z,55.9
2017-09-02T04:44:48.948Z,55.6
2017-09-02T04:45:49.591Z,55.7
2017-09-02T04:46:50.234Z,55.9
2017-09-02T04:47:50.877Z,55.7
2017-09-02T04:48:51.622Z,55.6
2017-09-02T04:49:52.267Z,55.8
2017-09-02T04:50:52.908Z,55.9
2017-09-02T04:51:53.545Z,55.4
2017-09-02T04:52:54.187Z,55.6
2017-09-02T04:53:54.835Z,55.6
2017-09-02T04:54:55.473Z,55.5
2017-09-02T04:55:56.114Z,55.8
2017-09-02T04:56:56.761Z,55.6
2017-09-02T04:57:57.407Z,55.7
2017-09-02T04:58:58.049Z,55.6
2017-09-02T04:59:58.694Z,55.8
2017-09-02T05:00:59.334Z,55.7
2017-09-02T05:01:59.974Z,55.5
2017-09-02T05:03:00.618Z,55.6
2017-09-02T05:04:01.359Z,55.7
2017-09-02T05:05:02.002Z,55.5
2017-09-02T05:06:02.646Z,55.8
2017-09-02T05:07:03.285Z,55.8
2017-09-02T05:08:03.927Z,55.6
2017-09-02T05:09:04.568Z,55.7
2017-09-02T05:10:05.211Z,55.8
2017-09-02T05:11:05.858Z,55.6
2017-09-02T05:12:06.613Z,55.7
2017-09-02T05:13:07.264Z,55.6
2017-09-02T05:14:07.905Z,55.8
2017-09-02T05:15:08.549Z,55.7
2017-09-02T05:16:09.191Z,55.7
2017-09-02T05:17:09.833Z,55.5
2017-09-02T05:18:10.478Z,55.7
2017-09-02T05:19:11.272Z,55.5
2017-09-02T05:20:11.914Z,55.7
2017-09-02T05:21:12.557Z,55.5
2017-09-02T05:22:13.203Z,55.7
2017-09-02T05:23:13.841Z,55.8
2017-09-02T05:24:14.486Z,55.8
2017-09-02T05:25:15.127Z,55.7
2017-09-02T05:26:15.770Z,55.6
2017-09-02T05:27:16.412Z,55.7
2017-09-02T05:28:17.054Z,55.5
2017-09-02T05:29:17.695Z,55.7
2017-09-02T05:30:18.337Z,55.7
2017-09-02T05:31:18.983Z,55.7
2017-09-02T05:32:19.649Z,55.7
2017-09-02T05:33:20.289Z,55.5
2017-09-02T05:34:21.082Z,55.6
2017-09-02T05:35:21.724Z,55.7
2017-09-02T05:36:22.364Z,55.5
2017-09-02T05:37:23.006Z,55.7
2017-09-02T05:38:23.649Z,55.5
2017-09-02T05:39:24.291Z,55.5
2017-09-02T05:40:24.932Z,55.8
2017-09-02T05:41:25.575Z,55.5
2017-09-02T05:42:26.218Z,55.8
2017-09-02T05:43:26.862Z,55.8
2017-09-02T05:44:27.504Z,55.8
2017-09-02T05:45:28.149Z,55.8
2017-09-02T05:46:28.789Z,55.8
2017-09-02T05:47:29.431Z,55.9
2017-09-02T05:48:30.073Z,55.8
2017-09-02T05:49:31.015Z,55.9
2017-09-02T05:50:31.664Z,55.8
2017-09-02T05:51:32.308Z,55.8
2017-09-02T05:52:32.950Z,55.9
2017-09-02T05:53:33.594Z,55.9
2017-09-02T05:54:34.237Z,55.8
2017-09-02T05:55:34.879Z,55.8
2017-09-02T05:56:35.522Z,55.8
2017-09-02T05:57:36.166Z,55.8
2017-09-02T05:58:36.809Z,55.8
2017-09-02T05:59:37.453Z,55.8
2017-09-02T06:00:38.096Z,55.8
2017-09-02T06:01:38.738Z,55.8
2017-09-02T06:02:39.381Z,55.6
2017-09-02T06:03:40.022Z,55.8
2017-09-02T06:04:40.762Z,55.8
2017-09-02T06:05:41.406Z,55.9
2017-09-02T06:06:42.047Z,55.9
2017-09-02T06:07:42.691Z,55.7
2017-09-02T06:08:43.331Z,55.8
2017-09-02T06:09:43.976Z,55.8
2017-09-02T06:10:44.617Z,55.6
2017-09-02T06:11:45.261Z,55.6
2017-09-02T06:12:45.904Z,55.7
2017-09-02T06:13:46.546Z,55.7
2017-09-02T06:14:47.188Z,55.7
2017-09-02T06:15:47.830Z,55.6
2017-09-02T06:16:48.472Z,55.6
2017-09-02T06:17:49.114Z,55.8
2017-09-02T06:18:49.755Z,55.7
2017-09-02T06:19:50.497Z,55.8
2017-09-02T06:20:51.141Z,55.6
2017-09-02T06:21:51.784Z,55.4
2017-09-02T06:22:52.429Z,55.8
2017-09-02T06:23:53.068Z,55.8
2017-09-02T06:24:53.709Z,55.6
2017-09-02T06:25:54.353Z,55.7
2017-09-02T06:26:54.995Z,55.8
2017-09-02T06:27:55.639Z,55.4
2017-09-02T06:28:56.282Z,55.5
2017-09-02T06:29:56.927Z,55.8
2017-09-02T06:30:57.568Z,55.5
2017-09-02T06:31:58.211Z,55.6
2017-09-02T06:32:58.852Z,55.4
2017-09-02T06:33:59.493Z,55.5
2017-09-02T06:35:00.385Z,55.5
2017-09-02T06:36:01.027Z,55.8
2017-09-02T06:37:01.677Z,55.4
2017-09-02T06:38:02.318Z,55.8
2017-09-02T06:39:02.956Z,55.5
2017-09-02T06:40:03.598Z,55.5
2017-09-02T06:41:04.240Z,55.9
2017-09-02T06:42:04.882Z,55.6
2017-09-02T06:43:05.527Z,55.6
2017-09-02T06:44:06.170Z,55.8
2017-09-02T06:45:06.812Z,55.8
2017-09-02T06:46:07.456Z,55.8
2017-09-02T06:47:08.099Z,56.0
2017-09-02T06:48:08.743Z,55.5
2017-09-02T06:49:09.387Z,56.0
2017-09-02T06:50:10.329Z,55.8
2017-09-02T06:51:10.972Z,55.8
2017-09-02T06:52:11.634Z,55.8
2017-09-02T06:53:12.277Z,56.0
2017-09-02T06:54:12.919Z,55.8
2017-09-02T06:55:13.561Z,56.0
2017-09-02T06:56:14.203Z,55.8
2017-09-02T06:57:14.845Z,55.8
2017-09-02T06:58:15.489Z,55.7
2017-09-02T06:59:16.131Z,55.9
2017-09-02T07:00:16.873Z,55.8
2017-09-02T07:01:17.514Z,55.8
2017-09-02T07:02:18.158Z,55.8
2017-09-02T07:03:18.801Z,55.8
2017-09-02T07:04:19.443Z,55.8
2017-09-02T07:05:20.088Z,55.6
2017-09-02T07:06:20.736Z,55.6
2017-09-02T07:07:21.376Z,55.7
2017-09-02T07:08:22.019Z,55.7
2017-09-02T07:09:22.661Z,55.6
2017-09-02T07:10:23.304Z,55.7
2017-09-02T07:11:23.945Z,55.8
2017-09-02T07:12:24.587Z,55.6
2017-09-02T07:13:25.229Z,55.7
2017-09-02T07:14:25.872Z,55.7
2017-09-02T07:15:26.664Z,55.7
2017-09-02T07:16:27.306Z,55.7
2017-09-02T07:17:27.949Z,56.0
2017-09-02T07:18:28.590Z,55.8
2017-09-02T07:19:29.232Z,55.8
2017-09-02T07:20:29.873Z,55.7
2017-09-02T07:21:30.512Z,55.8
2017-09-02T07:22:31.155Z,55.7
2017-09-02T07:23:31.795Z,56.0
2017-09-02T07:24:32.441Z,55.7
2017-09-02T07:25:33.080Z,55.9
2017-09-02T07:26:33.724Z,55.8
2017-09-02T07:27:34.365Z,56.0
2017-09-02T07:28:35.007Z,56.0
2017-09-02T07:29:35.649Z,55.8
2017-09-02T07:30:36.590Z,55.7
2017-09-02T07:31:37.232Z,55.9
2017-09-02T07:32:37.874Z,55.9
2017-09-02T07:33:38.513Z,55.8
2017-09-02T07:34:39.155Z,55.9
2017-09-02T07:35:39.799Z,55.9
2017-09-02T07:36:40.439Z,55.8
2017-09-02T07:37:41.082Z,55.8
2017-09-02T07:38:41.723Z,55.7
2017-09-02T07:39:42.367Z,55.8
2017-09-02T07:40:43.008Z,56.0
2017-09-02T07:41:43.652Z,55.8
2017-09-02T07:42:44.293Z,55.8
2017-09-02T07:43:44.935Z,55.8
2017-09-02T07:44:45.579Z,55.8
2017-09-02T07:45:46.319Z,55.9
2017-09-02T07:46:46.959Z,55.8
2017-09-02T07:47:47.602Z,55.8
2017-09-02T07:48:48.244Z,56.0
2017-09-02T07:49:48.887Z,55.9
2017-09-02T07:50:49.528Z,56.1
2017-09-02T07:51:50.172Z,55.9
2017-09-02T07:52:50.814Z,55.9
2017-09-02T07:53:51.457Z,55.8
2017-09-02T07:54:52.100Z,56.0
2017-09-02T07:55:52.743Z,56.0
2017-09-02T07:56:53.386Z,56.1
2017-09-02T07:57:54.031Z,55.9
2017-09-02T07:58:54.673Z,55.9
2017-09-02T07:59:55.316Z,55.8
2017-09-02T08:00:55.959Z,55.8
2017-09-02T08:01:56.601Z,55.8
2017-09-02T08:02:57.244Z,56.1
2017-09-02T08:03:57.885Z,56.0
2017-09-02T08:04:58.527Z,56.1
2017-09-02T08:05:59.169Z,56.0
2017-09-02T08:07:00.311Z,56.2
2017-09-02T08:08:00.953Z,56.3
2017-09-02T08:09:01.597Z,56.2
2017-09-02T08:10:02.240Z,56.0
2017-09-02T08:11:02.883Z,56.2
2017-09-02T08:12:03.528Z,56.1
2017-09-02T08:13:04.170Z,56.0
2017-09-02T08:14:04.813Z,56.0
2017-09-02T08:15:05.457Z,55.9
2017-09-02T08:16:06.101Z,56.1
2017-09-02T08:17:06.742Z,56.0
2017-09-02T08:18:07.385Z,56.1
2017-09-02T08:19:08.028Z,56.1
2017-09-02T08:20:08.670Z,56.1
2017-09-02T08:21:09.311Z,56.4
2017-09-02T08:22:10.054Z,56.0
2017-09-02T08:23:10.698Z,56.2
2017-09-02T08:24:11.339Z,56.2
2017-09-02T08:25:11.983Z,56.3
2017-09-02T08:26:12.623Z,56.1
2017-09-02T08:27:13.270Z,56.3
2017-09-02T08:28:13.914Z,56.3
2017-09-02T08:29:14.557Z,56.2
2017-09-02T08:30:15.199Z,56.2
2017-09-02T08:31:15.841Z,56.2
2017-09-02T08:32:16.515Z,56.3
2017-09-02T08:33:17.133Z,56.2
2017-09-02T08:34:17.773Z,56.2
2017-09-02T08:35:18.417Z,56.0
2017-09-02T08:36:19.059Z,56.6
2017-09-02T08:37:19.853Z,56.3
2017-09-02T08:38:20.496Z,56.0
2017-09-02T08:39:21.138Z,56.0
2017-09-02T08:40:21.781Z,56.2
2017-09-02T08:41:22.422Z,56.3
2017-09-02T08:42:23.066Z,56.0
2017-09-02T08:43:23.708Z,56.0
2017-09-02T08:44:24.350Z,56.3
2017-09-02T08:45:24.992Z,56.1
2017-09-02T08:46:25.636Z,56.3
2017-09-02T08:47:26.283Z,56.3
2017-09-02T08:48:26.928Z,56.0
2017-09-02T08:49:27.569Z,56.4
2017-09-02T08:50:28.212Z,56.2
2017-09-02T08:51:28.854Z,56.2
2017-09-02T08:52:29.497Z,56.2
2017-09-02T08:53:30.140Z,56.3
2017-09-02T08:54:30.783Z,56.1
2017-09-02T08:55:31.427Z,56.4
2017-09-02T08:56:32.071Z,56.4
2017-09-02T08:57:32.713Z,56.2
2017-09-02T08:58:33.356Z,56.3
2017-09-02T08:59:33.999Z,56.2
2017-09-02T09:00:34.644Z,56.4
2017-09-02T09:01:35.282Z,56.1
2017-09-02T09:02:35.924Z,56.2
2017-09-02T09:03:36.565Z,56.3
2017-09-02T09:04:37.211Z,56.2
2017-09-02T09:05:37.849Z,56.2
2017-09-02T09:06:38.491Z,56.4
2017-09-02T09:07:39.234Z,56.3
2017-09-02T09:08:39.879Z,56.5
2017-09-02T09:09:40.522Z,56.5
2017-09-02T09:10:41.166Z,56.3
2017-09-02T09:11:41.808Z,56.3
2017-09-02T09:12:42.451Z,56.5
2017-09-02T09:13:43.094Z,56.4
2017-09-02T09:14:43.737Z,56.5
2017-09-02T09:15:44.380Z,56.4
2017-09-02T09:16:45.026Z,56.5
2017-09-02T09:17:45.666Z,56.3
2017-09-02T09:18:46.311Z,56.3
2017-09-02T09:19:46.952Z,56.3
2017-09-02T09:20:47.595Z,56.3
2017-09-02T09:21:48.238Z,56.4
2017-09-02T09:22:49.133Z,56.5
2017-09-02T09:23:49.771Z,56.3
2017-09-02T09:24:50.412Z,56.1
2017-09-02T09:25:51.055Z,56.2
2017-09-02T09:26:51.697Z,56.2
2017-09-02T09:27:52.355Z,56.1
2017-09-02T09:28:52.980Z,56.4
2017-09-02T09:29:53.624Z,56.3
2017-09-02T09:30:54.267Z,56.4
2017-09-02T09:31:54.912Z,56.5
2017-09-02T09:32:55.558Z,56.3
2017-09-02T09:33:56.198Z,56.4
2017-09-02T09:34:56.840Z,56.3
2017-09-02T09:35:57.483Z,56.4
2017-09-02T09:36:58.126Z,56.3
2017-09-02T09:37:59.019Z,56.3
2017-09-02T09:38:59.660Z,56.4
2017-09-02T09:40:00.303Z,56.0
2017-09-02T09:41:00.943Z,56.4
2017-09-02T09:42:01.586Z,56.3
2017-09-02T09:43:02.229Z,56.3
2017-09-02T09:44:02.870Z,56.3
2017-09-02T09:45:03.514Z,56.2
2017-09-02T09:46:04.156Z,56.3
2017-09-02T09:47:04.800Z,56.3
2017-09-02T09:48:05.441Z,56.4
2017-09-02T09:49:06.085Z,56.5
2017-09-02T09:50:06.727Z,56.3
2017-09-02T09:51:07.369Z,56.3
2017-09-02T09:52:08.033Z,56.4
2017-09-02T09:53:08.827Z,56.4
2017-09-02T09:54:09.470Z,56.4
2017-09-02T09:55:10.116Z,56.4
2017-09-02T09:56:10.757Z,56.5
2017-09-02T09:57:11.400Z,56.3
2017-09-02T09:58:12.040Z,56.4
2017-09-02T09:59:12.682Z,56.5
2017-09-02T10:00:13.325Z,56.4
2017-09-02T10:01:13.970Z,56.4
2017-09-02T10:02:14.609Z,56.2
2017-09-02T10:03:15.249Z,56.3
2017-09-02T10:04:15.891Z,56.2
2017-09-02T10:05:16.532Z,56.2
2017-09-02T10:06:17.176Z,56.3
2017-09-02T10:07:17.819Z,56.4
2017-09-02T10:08:18.710Z,56.4
2017-09-02T10:09:19.351Z,56.4
2017-09-02T10:10:19.995Z,56.0
2017-09-02T10:11:20.637Z,56.2
2017-09-02T10:12:21.278Z,56.1
2017-09-02T10:13:21.921Z,56.4
2017-09-02T10:14:22.562Z,56.4
2017-09-02T10:15:23.204Z,56.3
2017-09-02T10:16:23.847Z,56.4
2017-09-02T10:17:24.487Z,56.3
2017-09-02T10:18:25.129Z,56.2
2017-09-02T10:19:25.772Z,56.3
2017-09-02T10:20:26.413Z,56.4
2017-09-02T10:21:27.082Z,56.5
2017-09-02T10:22:27.698Z,56.0
2017-09-02T10:23:28.592Z,56.4
2017-09-02T10:24:29.233Z,56.5
2017-09-02T10:25:29.873Z,56.2
2017-09-02T10:26:30.515Z,56.4
2017-09-02T10:27:31.157Z,56.2
2017-09-02T10:28:31.803Z,56.2
2017-09-02T10:29:32.440Z,56.2
2017-09-02T10:30:33.083Z,56.3
2017-09-02T10:31:33.725Z,56.0
2017-09-02T10:32:34.369Z,56.3
2017-09-02T10:33:35.011Z,56.4
2017-09-02T10:34:35.656Z,56.2
2017-09-02T10:35:36.297Z,56.3
2017-09-02T10:36:36.940Z,56.4
2017-09-02T10:37:37.583Z,56.4
2017-09-02T10:38:38.326Z,56.2
2017-09-02T10:39:38.967Z,56.2
2017-09-02T10:40:39.608Z,56.4
2017-09-02T10:41:40.251Z,56.4
2017-09-02T10:42:40.893Z,56.2
2017-09-02T10:43:41.534Z,56.2
2017-09-02T10:44:42.177Z,56.3
2017-09-02T10:45:42.819Z,56.1
2017-09-02T10:46:43.463Z,56.1
2017-09-02T10:47:44.108Z,56.3
2017-09-02T10:48:44.749Z,56.2
2017-09-02T10:49:45.391Z,56.5
2017-09-02T10:50:46.034Z,56.1
2017-09-02T10:51:46.677Z,56.1
2017-09-02T10:52:47.320Z,56.1
2017-09-02T10:53:48.263Z,56.3
2017-09-02T10:54:48.906Z,56.0
2017-09-02T10:55:49.548Z,56.0
2017-09-02T10:56:50.193Z,56.4
2017-09-02T10:57:50.835Z,56.3
2017-09-02T10:58:51.478Z,56.1
2017-09-02T10:59:52.121Z,56.0
2017-09-02T11:00:52.772Z,56.3
2017-09-02T11:01:53.413Z,56.2
2017-09-02T11:02:54.056Z,56.4
2017-09-02T11:03:54.697Z,56.2
2017-09-02T11:04:55.340Z,56.4
2017-09-02T11:05:55.982Z,56.0
2017-09-02T11:06:56.624Z,56.4
2017-09-02T11:07:57.266Z,56.3
2017-09-02T11:08:58.208Z,56.1
2017-09-02T11:09:58.849Z,56.4
2017-09-02T11:10:59.492Z,56.8
2017-09-02T11:12:00.136Z,56.3
2017-09-02T11:13:00.778Z,56.3
2017-09-02T11:14:01.418Z,56.2
2017-09-02T11:15:02.060Z,56.2
2017-09-02T11:16:02.701Z,56.2
2017-09-02T11:17:03.342Z,56.2
2017-09-02T11:18:03.987Z,56.0
2017-09-02T11:19:04.629Z,56.1
2017-09-02T11:20:05.272Z,56.3
2017-09-02T11:21:05.915Z,56.4
2017-09-02T11:22:06.558Z,56.0
2017-09-02T11:23:07.201Z,56.4
2017-09-02T11:24:07.944Z,56.3
2017-09-02T11:25:08.586Z,56.2
2017-09-02T11:26:09.226Z,56.1
2017-09-02T11:27:09.867Z,56.1
2017-09-02T11:28:10.509Z,56.3
2017-09-02T11:29:11.150Z,56.2
2017-09-02T11:30:11.796Z,56.0
2017-09-02T11:31:12.442Z,55.9
2017-09-02T11:32:13.106Z,56.2
2017-09-02T11:33:13.749Z,56.0
2017-09-02T11:34:14.391Z,55.9
2017-09-02T11:35:15.033Z,56.1
2017-09-02T11:36:15.673Z,55.8
2017-09-02T11:37:16.316Z,55.9
2017-09-02T11:38:16.960Z,55.9
2017-09-02T11:39:17.904Z,56.1
2017-09-02T11:40:18.546Z,55.8
2017-09-02T11:41:19.189Z,56.0
2017-09-02T11:42:19.830Z,56.0
2017-09-02T11:43:20.474Z,56.0
2017-09-02T11:44:21.117Z,56.0
2017-09-02T11:45:21.759Z,55.8
2017-09-02T11:46:22.402Z,55.9
2017-09-02T11:47:23.046Z,56.2
2017-09-02T11:48:23.689Z,56.4
2017-09-02T11:49:24.333Z,55.9
2017-09-02T11:50:24.976Z,55.9
2017-09-02T11:51:25.620Z,55.9
2017-09-02T11:52:26.262Z,56.2
2017-09-02T11:53:26.906Z,56.0
2017-09-02T11:54:27.846Z,55.8
2017-09-02T11:55:28.487Z,55.9
2017-09-02T11:56:29.128Z,56.2
2017-09-02T11:57:29.770Z,56.3
2017-09-02T11:58:30.414Z,56.1
2017-09-02T11:59:31.057Z,56.2
2017-09-02T12:00:31.700Z,55.8
2017-09-02T12:01:32.342Z,56.0
2017-09-02T12:02:32.986Z,56.0
2017-09-02T12:03:33.627Z,56.1
2017-09-02T12:04:34.276Z,55.9
2017-09-02T12:05:34.919Z,55.8
2017-09-02T12:06:35.561Z,56.2
2017-09-02T12:07:36.201Z,55.8
2017-09-02T12:08:36.843Z,55.8
2017-09-02T12:09:37.636Z,55.9
2017-09-02T12:10:38.279Z,55.9
2017-09-02T12:11:38.923Z,56.3
2017-09-02T12:12:39.566Z,56.2
2017-09-02T12:13:40.210Z,56.1
2017-09-02T12:14:40.854Z,56.2
2017-09-02T12:15:41.499Z,56.2
2017-09-02T12:16:42.140Z,56.2
2017-09-02T12:17:42.784Z,56.1
2017-09-02T12:18:43.429Z,56.2
2017-09-02T12:19:44.069Z,55.9
2017-09-02T12:20:44.711Z,55.8
2017-09-02T12:21:45.357Z,56.0
2017-09-02T12:22:46.004Z,55.7
2017-09-02T12:23:46.647Z,56.0
2017-09-02T12:24:47.590Z,55.8
2017-09-02T12:25:48.232Z,56.2
2017-09-02T12:26:48.875Z,56.1
2017-09-02T12:27:49.518Z,55.8
2017-09-02T12:28:50.162Z,55.9
2017-09-02T12:29:50.810Z,55.9
2017-09-02T12:30:51.447Z,55.7
2017-09-02T12:31:52.091Z,55.8
2017-09-02T12:32:52.734Z,56.0
2017-09-02T12:33:53.379Z,56.2
2017-09-02T12:34:54.020Z,55.6
2017-09-02T12:35:54.664Z,56.1
2017-09-02T12:36:55.306Z,56.0
2017-09-02T12:37:55.949Z,55.8
2017-09-02T12:38:56.591Z,55.5
2017-09-02T12:39:57.331Z,55.8
2017-09-02T12:40:57.971Z,55.6
2017-09-02T12:41:58.614Z,55.9
2017-09-02T12:42:59.280Z,55.7
2017-09-02T12:43:59.901Z,55.4
2017-09-02T12:45:00.543Z,55.6
2017-09-02T12:46:01.188Z,55.8
2017-09-02T12:47:01.832Z,55.6
2017-09-02T12:48:02.477Z,55.4
2017-09-02T12:49:03.120Z,55.8
2017-09-02T12:50:03.764Z,55.8
2017-09-02T12:51:04.406Z,55.8
2017-09-02T12:52:05.053Z,55.7
2017-09-02T12:53:05.692Z,55.5
2017-09-02T12:54:06.336Z,55.9
2017-09-02T12:55:07.078Z,55.6
2017-09-02T12:56:07.720Z,56.0
2017-09-02T12:57:08.362Z,55.8
2017-09-02T12:58:09.003Z,55.9
2017-09-02T12:59:09.644Z,55.6
2017-09-02T13:00:10.289Z,55.8
2017-09-02T13:01:10.930Z,55.8
2017-09-02T13:02:11.573Z,56.0
2017-09-02T13:03:12.214Z,55.7
2017-09-02T13:04:12.858Z,55.5
2017-09-02T13:05:13.502Z,55.9
2017-09-02T13:06:14.146Z,55.7
2017-09-02T13:07:14.788Z,55.8
2017-09-02T13:08:15.430Z,55.8
2017-09-02T13:09:16.072Z,55.7
2017-09-02T13:10:16.817Z,55.6
2017-09-02T13:11:17.457Z,55.6
2017-09-02T13:12:18.127Z,55.7
2017-09-02T13:13:18.769Z,55.7
2017-09-02T13:14:19.410Z,56.0
2017-09-02T13:15:20.053Z,55.5
2017-09-02T13:16:20.695Z,55.2
2017-09-02T13:17:21.336Z,55.4
2017-09-02T13:18:21.977Z,55.4
2017-09-02T13:19:22.620Z,55.2
2017-09-02T13:20:23.263Z,55.3
2017-09-02T13:21:23.907Z,55.1
2017-09-02T13:22:24.550Z,55.3
2017-09-02T13:23:25.194Z,55.2
2017-09-02T13:24:25.838Z,55.3
2017-09-02T13:25:26.783Z,55.7
2017-09-02T13:26:27.423Z,55.5
2017-09-02T13:27:28.068Z,55.7